Time;durP1;ratioP1;P1;durP2;ratioP2;P2;SDS_P1;SDS_P2;PMS_P1;PMS_P2;Temp;Humidity;BMP_temperature;BMP_pressure;BME280_temperature;BME280_humidity;BME280_pressure;Samples;Min_cycle;Max_cycle;Signal;HPM_P1;HPM_P2
2022/03/05 00:00:40;;;;;;;20.43;10.90;;;;;;;2.61;59.50;94317.63;5034255;28;20181;-65
2022/03/05 00:03:10;;;;;;;24.33;11.40;;;;;;;2.61;58.94;94324.38;5034733;28;20268;-66
2022/03/05 00:05:37;;;;;;;21.50;10.83;;;;;;;2.53;59.88;94314.75;5032354;28;20182;-66
2022/03/05 00:08:03;;;;;;;19.93;10.87;;;;;;;2.57;59.10;94316.19;5034005;28;20623;-66
2022/03/05 00:10:30;;;;;;;17.80;10.37;;;;;;;2.62;60.04;94309.22;5034124;28;20200;-63
2022/03/05 00:12:56;;;;;;;21.23;10.60;;;;;;;2.77;59.97;94300.75;5034245;28;20234;-66
2022/03/05 00:15:23;;;;;;;18.47;10.03;;;;;;;2.75;59.30;94311.81;5033995;28;20228;-66
2022/03/05 00:17:49;;;;;;;17.43;9.77;;;;;;;3.03;58.80;94341.88;5033983;28;20280;-65
2022/03/05 00:20:15;;;;;;;18.90;11.00;;;;;;;3.25;58.17;94359.75;5033848;28;20178;-64
2022/03/05 00:22:41;;;;;;;22.70;11.87;;;;;;;3.35;57.61;94353.25;5033924;28;20254;-64
2022/03/05 00:25:06;;;;;;;16.63;10.63;;;;;;;3.21;57.53;94374.19;5033805;28;20250;-64
2022/03/05 00:27:32;;;;;;;17.10;10.47;;;;;;;3.27;57.57;94365.50;5033971;28;20178;-66
2022/03/05 00:29:58;;;;;;;20.20;10.73;;;;;;;3.40;58.24;94357.09;5032202;28;20735;-64
2022/03/05 00:32:23;;;;;;;18.30;9.40;;;;;;;3.36;57.78;94382.50;5033516;28;20193;-65
2022/03/05 00:34:49;;;;;;;21.13;10.20;;;;;;;3.28;58.25;94362.88;5034088;28;20195;-65
2022/03/05 00:37:14;;;;;;;19.00;10.83;;;;;;;3.54;58.39;94373.00;5033783;28;20199;-65
2022/03/05 00:39:40;;;;;;;17.87;10.77;;;;;;;3.59;57.66;94366.81;5033638;28;20243;-65
2022/03/05 00:42:06;;;;;;;17.23;10.37;;;;;;;3.73;58.05;94360.91;5032968;28;20182;-64
2022/03/05 00:44:32;;;;;;;22.93;11.83;;;;;;;3.77;57.29;94367.38;5033369;28;20194;-64
2022/03/05 00:46:58;;;;;;;21.20;12.43;;;;;;;4.00;56.96;94381.81;5033418;28;20186;-66
2022/03/05 00:49:24;;;;;;;22.07;11.60;;;;;;;3.98;57.32;94376.06;5033257;28;20195;-65
2022/03/05 00:51:52;;;;;;;19.80;10.67;;;;;;;4.14;56.52;94391.78;5033280;28;20563;-65
2022/03/05 00:54:19;;;;;;;18.40;11.47;;;;;;;4.03;57.01;94381.59;5033650;28;20281;-64
2022/03/05 00:56:45;;;;;;;16.40;10.50;;;;;;;3.99;57.46;94387.72;5031841;28;20571;-64
2022/03/05 00:59:10;;;;;;;19.63;11.20;;;;;;;4.03;57.22;94386.63;5033510;28;20206;-64
2022/03/05 01:01:36;;;;;;;18.50;10.33;;;;;;;3.97;57.71;94374.44;5031687;28;20182;-64
2022/03/05 01:04:02;;;;;;;19.10;11.53;;;;;;;3.95;56.84;94383.78;5033317;28;20210;-65
2022/03/05 01:06:30;;;;;;;21.20;11.33;;;;;;;3.98;56.79;94388.66;5033081;28;20176;-65
2022/03/05 01:08:56;;;;;;;20.17;11.27;;;;;;;4.05;56.11;94399.91;5033498;28;20221;-65
2022/03/05 01:11:21;;;;;;;20.70;11.37;;;;;;;4.03;57.87;94362.28;5032785;28;20182;-66
2022/03/05 01:13:47;;;;;;;19.57;11.47;;;;;;;3.93;57.83;94350.41;5033193;28;20208;-65
2022/03/05 01:16:13;;;;;;;19.10;11.87;;;;;;;3.98;58.30;94330.81;5032784;28;20638;-68
2022/03/05 01:18:39;;;;;;;18.93;10.60;;;;;;;4.01;59.14;94318.03;5033020;28;20218;-65
2022/03/05 01:21:04;;;;;;;20.77;11.93;;;;;;;4.08;58.07;94351.94;5032611;28;20195;-66
2022/03/05 01:23:30;;;;;;;22.33;13.17;;;;;;;3.97;59.57;94311.59;5031668;28;20261;-64
2022/03/05 01:25:56;;;;;;;17.33;10.80;;;;;;;3.99;59.70;94300.53;5014774;28;20192;-65
2022/03/05 01:28:21;;;;;;;23.60;12.43;;;;;;;4.18;58.88;94331.13;5032691;28;20212;-64
2022/03/05 01:30:47;;;;;;;24.73;12.50;;;;;;;4.03;59.00;94337.16;5031126;28;20222;-65
2022/03/05 01:33:17;;;;;;;26.47;13.23;;;;;;;3.85;58.83;94322.44;5032401;28;20212;-64
2022/03/05 01:35:43;;;;;;;28.33;13.30;;;;;;;3.63;61.32;94260.19;5032733;28;20210;-65
2022/03/05 01:38:09;;;;;;;24.83;13.57;;;;;;;3.38;62.14;94223.25;5047972;22;20236;-61
2022/03/05 01:40:34;;;;;;;22.63;12.77;;;;;;;3.57;61.79;94277.34;5030830;28;20210;-63
2022/03/05 01:43:19;;;;;;;24.63;13.03;;;;;;;3.39;61.06;94270.06;5032158;28;20207;-65
2022/03/05 01:45:44;;;;;;;19.73;12.07;;;;;;;3.23;61.74;94259.38;5032281;28;20653;-66
2022/03/05 01:48:09;;;;;;;24.27;13.13;;;;;;;3.46;60.57;94290.59;5032072;28;20209;-65
2022/03/05 01:50:35;;;;;;;23.97;12.77;;;;;;;3.61;60.93;94293.84;5032438;28;20597;-65
2022/03/05 01:53:00;;;;;;;36.13;14.47;;;;;;;3.35;61.49;94275.41;5031914;28;20698;-66
2022/03/05 01:55:26;;;;;;;23.33;13.40;;;;;;;3.39;61.90;94272.56;5032511;28;20188;-64
2022/03/05 01:57:52;;;;;;;27.50;14.40;;;;;;;3.31;62.16;94267.22;5030903;28;20399;-65
2022/03/05 02:00:18;;;;;;;32.33;15.30;;;;;;;3.29;62.76;94251.44;5032340;28;20626;-63
2022/03/05 02:02:45;;;;;;;25.47;14.47;;;;;;;3.38;61.57;94282.72;5031840;28;20186;-65
2022/03/05 02:05:11;;;;;;;30.83;14.70;;;;;;;3.19;63.08;94232.06;5032317;28;20201;-66
2022/03/05 02:07:37;;;;;;;26.97;14.33;;;;;;;3.33;63.27;94235.28;5032099;28;20186;-64
2022/03/05 02:10:06;;;;;;;29.13;14.83;;;;;;;3.45;63.54;94250.50;5032326;28;20514;-64
2022/03/05 02:12:33;;;;;;;27.00;14.77;;;;;;;3.46;64.33;94219.44;5032051;28;20269;-65
2022/03/05 02:15:02;;;;;;;26.33;14.40;;;;;;;3.39;64.59;94204.75;5030585;28;20606;-66
2022/03/05 02:17:28;;;;;;;23.13;14.23;;;;;;;3.49;64.28;94215.03;5030341;28;20215;-64
2022/03/05 02:19:54;;;;;;;31.20;16.07;;;;;;;3.61;63.83;94248.63;5031970;28;20218;-64
2022/03/05 02:22:20;;;;;;;26.43;15.87;;;;;;;3.70;63.33;94253.84;5031688;28;20181;-65
2022/03/05 02:24:47;;;;;;;29.57;16.40;;;;;;;3.60;62.99;94259.56;5030484;28;20214;-65
2022/03/05 02:27:13;;;;;;;29.60;17.27;;;;;;;3.51;62.85;94250.09;5031581;28;20166;-65
2022/03/05 02:29:39;;;;;;;28.93;15.43;;;;;;;3.49;64.23;94225.09;5031967;28;20264;-64
2022/03/05 02:32:06;;;;;;;28.23;15.37;;;;;;;3.47;64.09;94231.09;5031798;28;20178;-64
2022/03/05 02:34:32;;;;;;;29.03;14.80;;;;;;;3.59;63.83;94252.94;5031808;28;20206;-65
2022/03/05 02:36:57;;;;;;;26.70;15.63;;;;;;;3.59;63.45;94251.22;5045188;22;20258;-65
2022/03/05 02:39:26;;;;;;;30.83;16.93;;;;;;;3.55;64.62;94224.69;5031962;28;20208;-64
2022/03/05 02:41:53;;;;;;;33.20;16.30;;;;;;;3.49;65.77;94212.53;5032235;28;20192;-64
2022/03/05 02:44:19;;;;;;;32.00;16.97;;;;;;;3.55;65.13;94221.38;5031590;28;20286;-65
2022/03/05 02:46:45;;;;;;;35.23;16.70;;;;;;;3.47;65.56;94221.88;5032047;28;20193;-65
2022/03/05 02:49:10;;;;;;;31.23;17.50;;;;;;;3.53;65.22;94223.19;5031467;28;20194;-65
2022/03/05 02:51:37;;;;;;;37.40;18.23;;;;;;;3.83;64.74;94248.84;5031878;28;20217;-65
2022/03/05 02:54:03;;;;;;;34.40;19.53;;;;;;;3.83;65.33;94243.81;5031494;28;20325;-64
2022/03/05 02:56:28;;;;;;;36.30;19.17;;;;;;;3.43;65.29;94221.25;5030499;28;20279;-70
2022/03/05 02:58:54;;;;;;;37.80;20.00;;;;;;;3.14;68.46;94166.25;5031254;28;20217;-64
2022/03/05 03:01:19;;;;;;;37.23;20.03;;;;;;;2.80;68.08;94175.13;5031361;28;20203;-66
2022/03/05 03:03:45;;;;;;;44.90;21.20;;;;;;;2.84;67.70;94201.63;5032266;28;20328;-66
2022/03/05 03:06:10;;;;;;;37.83;20.33;;;;;;;3.03;66.10;94232.19;5035579;28;20211;-64
2022/03/05 03:08:36;;;;;;;35.30;19.90;;;;;;;3.12;65.98;94246.69;5035890;28;20671;-59
2022/03/05 03:11:02;;;;;;;39.17;20.23;;;;;;;3.19;65.19;94260.47;5035658;28;20216;-59
2022/03/05 03:13:27;;;;;;;40.77;19.37;;;;;;;3.16;65.41;94252.31;5034062;28;20684;-59
2022/03/05 03:15:53;;;;;;;38.20;20.40;;;;;;;3.16;65.94;94243.09;5035388;28;20190;-60
2022/03/05 03:18:19;;;;;;;40.23;21.20;;;;;;;3.02;66.68;94230.59;5033888;28;20356;-60
2022/03/05 03:20:45;;;;;;;36.47;18.90;;;;;;;2.95;66.26;94243.63;5035636;28;20187;-59
2022/03/05 03:23:11;;;;;;;39.93;20.93;;;;;;;3.04;66.61;94233.81;5035204;28;20190;-60
2022/03/05 03:25:39;;;;;;;34.53;19.07;;;;;;;3.00;65.54;94237.41;5033815;28;20244;-60
2022/03/05 03:28:08;;;;;;;37.90;20.63;;;;;;;3.18;65.26;94271.44;5033887;28;20249;-60
2022/03/05 03:30:34;;;;;;;39.73;21.00;;;;;;;3.11;65.70;94247.59;5035237;28;20652;-60
2022/03/05 03:33:01;;;;;;;41.60;21.43;;;;;;;3.25;66.13;94239.22;5035077;28;20198;-59
2022/03/05 03:35:27;;;;;;;35.97;21.83;;;;;;;3.19;66.56;94240.38;5035528;28;20182;-58
2022/03/05 03:37:53;;;;;;;35.23;19.47;;;;;;;3.27;65.50;94245.72;5035319;28;20244;-59
2022/03/05 03:40:20;;;;;;;39.67;21.40;;;;;;;3.57;65.17;94282.38;5035101;28;20182;-59
2022/03/05 03:42:50;;;;;;;34.33;18.80;;;;;;;3.46;65.50;94255.41;5034874;28;20229;-59
2022/03/05 03:45:16;;;;;;;35.50;19.20;;;;;;;3.40;65.35;94264.16;5034963;28;20162;-57
2022/03/05 03:47:44;;;;;;;33.70;18.73;;;;;;;3.20;66.34;94228.63;5034711;28;20182;-59
2022/03/05 03:50:12;;;;;;;33.97;17.90;;;;;;;3.11;67.69;94209.94;5034538;28;20175;-58
2022/03/05 03:52:44;;;;;;;31.27;17.07;;;;;;;3.20;67.13;94226.13;5033204;28;20220;-58
2022/03/05 03:55:14;;;;;;;32.77;18.67;;;;;;;3.34;66.88;94241.13;5034499;28;20275;-59
2022/03/05 03:57:39;;;;;;;30.53;17.60;;;;;;;3.42;66.23;94259.84;5034875;28;20687;-60
2022/03/05 04:00:08;;;;;;;31.33;17.00;;;;;;;3.35;66.79;94248.56;5034632;28;20246;-59
2022/03/05 04:02:34;;;;;;;29.60;16.70;;;;;;;3.05;67.88;94222.09;5033188;28;20587;-59
2022/03/05 04:04:59;;;;;;;31.17;17.53;;;;;;;2.88;68.76;94208.06;5034248;28;20664;-59
2022/03/05 04:10:09;;;;;;;29.20;15.77;;;;;;;2.98;69.15;94198.25;5033695;28;20679;-60
2022/03/05 04:12:35;;;;;;;30.43;15.10;;;;;;;3.03;69.36;94212.13;5034438;28;20190;-59
2022/03/05 04:15:01;;;;;;;27.33;15.37;;;;;;;3.08;68.78;94215.16;5033013;28;20677;-59
2022/03/05 04:17:27;;;;;;;28.33;15.90;;;;;;;3.12;68.35;94229.13;5034623;28;20218;-59
2022/03/05 04:19:52;;;;;;;34.70;16.77;;;;;;;3.19;68.40;94239.59;5034262;28;20256;-60
2022/03/05 04:22:18;;;;;;;36.20;19.10;;;;;;;3.27;67.32;94255.78;5034660;28;20213;-59
2022/03/05 04:24:43;;;;;;;30.97;16.87;;;;;;;3.29;67.67;94260.72;5032640;28;20206;-59
2022/03/05 04:27:08;;;;;;;28.03;17.20;;;;;;;3.28;67.58;94256.59;5033961;28;20178;-58
2022/03/05 04:29:34;;;;;;;34.63;17.80;;;;;;;3.27;67.34;94265.03;5033869;28;20233;-59
2022/03/05 04:32:00;;;;;;;28.97;16.20;;;;;;;3.33;67.70;94267.94;5034342;28;20182;-59
2022/03/05 04:34:26;;;;;;;26.40;16.47;;;;;;;3.17;68.32;94256.47;5033957;28;20198;-58
2022/03/05 04:36:52;;;;;;;31.90;15.70;;;;;;;3.19;68.78;94234.56;5033839;28;20352;-59
2022/03/05 04:39:17;;;;;;;31.27;16.80;;;;;;;3.20;69.21;94234.47;5016111;28;20747;-59
2022/03/05 04:41:49;;;;;;;30.17;18.17;;;;;;;3.21;68.71;94243.59;5034304;28;20182;-59
2022/03/05 04:44:15;;;;;;;28.17;16.10;;;;;;;3.14;69.59;94229.03;5040930;22;20310;-58
2022/03/05 04:46:41;;;;;;;30.17;16.90;;;;;;;3.36;68.83;94249.38;5015954;28;20186;-60
2022/03/05 04:49:08;;;;;;;29.47;16.70;;;;;;;3.48;68.64;94257.81;5016339;28;20213;-59
2022/03/05 04:51:34;;;;;;;34.30;15.60;;;;;;;3.02;70.44;94209.72;5033707;28;20645;-59
2022/03/05 04:53:59;;;;;;;36.53;16.17;;;;;;;3.07;69.70;94223.56;5033857;28;20216;-60
2022/03/05 04:56:25;;;;;;;28.80;16.23;;;;;;;2.96;70.73;94220.13;5033891;28;20278;-59
2022/03/05 04:58:51;;;;;;;29.97;17.43;;;;;;;2.97;69.11;94245.13;5033427;28;20655;-58
2022/03/05 05:01:18;;;;;;;36.20;16.83;;;;;;;3.01;69.80;94244.03;5033823;28;20273;-58
2022/03/05 05:03:44;;;;;;;31.97;17.37;;;;;;;3.04;69.56;94248.88;5033338;28;20205;-59
2022/03/05 05:06:10;;;;;;;32.20;17.90;;;;;;;2.93;69.72;94245.44;5033306;28;20664;-62
2022/03/05 05:08:35;;;;;;;34.70;17.80;;;;;;;2.95;69.74;94246.94;5015700;28;20225;-59
2022/03/05 05:11:01;;;;;;;38.80;18.47;;;;;;;3.03;69.74;94242.25;5033364;28;20175;-60
2022/03/05 05:13:27;;;;;;;36.90;19.30;;;;;;;3.22;71.42;94235.19;5033153;28;20646;-59
2022/03/05 05:15:52;;;;;;;35.67;18.47;;;;;;;3.28;71.49;94236.50;5033178;28;20568;-58
2022/03/05 05:18:18;;;;;;;33.00;17.20;;;;;;;3.18;71.08;94241.28;5015246;28;20575;-60
2022/03/05 05:20:43;;;;;;;33.73;17.43;;;;;;;3.12;71.22;94246.69;5015394;28;20209;-63
2022/03/05 05:23:09;;;;;;;33.67;18.50;;;;;;;3.02;71.34;94239.84;5015402;28;20257;-58
2022/03/05 05:25:34;;;;;;;34.10;17.97;;;;;;;3.13;71.36;94253.31;5033062;28;20255;-61
2022/03/05 05:27:59;;;;;;;39.03;18.83;;;;;;;3.18;70.83;94263.09;5032785;28;20373;-59
2022/03/05 05:30:25;;;;;;;41.40;18.47;;;;;;;3.13;71.00;94258.34;5015038;28;20277;-60
2022/03/05 05:32:53;;;;;;;34.27;17.03;;;;;;;3.05;70.97;94278.09;5032537;28;20187;-59
2022/03/05 05:35:19;;;;;;;34.90;17.80;;;;;;;2.89;71.71;94264.88;5032814;28;20174;-61
2022/03/05 05:37:45;;;;;;;40.73;18.67;;;;;;;2.95;71.30;94273.75;5015159;28;20219;-60
2022/03/05 05:40:11;;;;;;;33.83;18.30;;;;;;;2.89;71.08;94274.91;5032531;28;20186;-60
2022/03/05 05:42:37;;;;;;;40.13;19.07;;;;;;;2.88;71.93;94275.03;5014686;28;20285;-59
2022/03/05 05:45:03;;;;;;;43.57;20.23;;;;;;;2.91;71.97;94287.41;5014824;28;20182;-59
2022/03/05 05:47:29;;;;;;;42.00;20.27;;;;;;;2.82;72.12;94278.72;5032299;28;20260;-60
2022/03/05 05:49:54;;;;;;;33.47;18.30;;;;;;;2.83;72.46;94277.03;5032056;28;20664;-59
2022/03/05 05:52:19;;;;;;;41.93;18.40;;;;;;;2.89;73.27;94264.09;5032154;28;20285;-59
2022/03/05 05:54:45;;;;;;;38.47;20.53;;;;;;;2.75;71.21;94312.59;5032104;28;20213;-60
2022/03/05 05:57:11;;;;;;;41.03;20.13;;;;;;;3.00;69.73;94330.31;4998121;28;20202;-59
2022/03/05 05:59:37;;;;;;;34.27;19.73;;;;;;;2.93;70.43;94314.00;5032158;28;20190;-58
2022/03/05 06:02:03;;;;;;;38.10;18.17;;;;;;;2.99;70.61;94333.69;5032019;28;20225;-59
2022/03/05 06:04:29;;;;;;;36.03;18.37;;;;;;;3.03;70.45;94342.66;5031951;28;20588;-59
2022/03/05 06:06:54;;;;;;;38.67;19.40;;;;;;;2.98;68.07;94377.28;5032141;28;20218;-60
2022/03/05 06:09:20;;;;;;;35.37;17.87;;;;;;;2.73;66.93;94402.22;5032078;28;20210;-58
2022/03/05 06:11:46;;;;;;;29.73;15.40;;;;;;;2.28;65.99;94417.41;5031788;28;20246;-59
2022/03/05 06:14:12;;;;;;;28.60;15.50;;;;;;;1.93;68.17;94374.25;5032355;28;20206;-59
2022/03/05 06:16:38;;;;;;;30.70;15.80;;;;;;;1.80;69.27;94344.97;5032018;28;20629;-60
2022/03/05 06:19:03;;;;;;;30.07;16.47;;;;;;;1.95;68.65;94374.16;5032115;28;20242;-59
2022/03/05 06:21:29;;;;;;;36.87;19.83;;;;;;;1.91;69.45;94360.19;5031549;28;20223;-60
2022/03/05 06:23:54;;;;;;;32.20;17.23;;;;;;;2.09;69.29;94379.22;5032099;28;20206;-59
2022/03/05 06:26:31;;;;;;;30.70;15.57;;;;;;;2.06;69.30;94366.88;5031921;28;20202;-59
2022/03/05 06:28:58;;;;;;;29.07;17.33;;;;;;;2.25;68.93;94370.75;5032022;28;20217;-60
2022/03/05 06:31:24;;;;;;;33.20;16.43;;;;;;;2.63;68.41;94392.81;5031856;28;20193;-59
2022/03/05 06:33:50;;;;;;;27.20;14.93;;;;;;;2.82;68.93;94378.28;5031293;28;20264;-66
2022/03/05 06:36:15;;;;;;;28.80;15.20;;;;;;;2.86;68.57;94375.50;5031904;28;20186;-60
2022/03/05 06:38:41;;;;;;;35.30;16.67;;;;;;;2.92;68.57;94392.72;5031185;28;20225;-59
2022/03/05 06:41:06;;;;;;;39.43;18.37;;;;;;;2.91;70.05;94370.22;5013735;28;20189;-59
2022/03/05 06:43:32;;;;;;;31.43;18.70;;;;;;;3.10;68.44;94385.78;5013777;28;20284;-60
2022/03/05 06:45:58;;;;;;;32.37;17.03;;;;;;;3.13;67.19;94421.53;5031787;28;20182;-60
2022/03/05 06:48:23;;;;;;;31.97;16.57;;;;;;;3.18;67.44;94418.75;5032176;28;20629;-58
2022/03/05 06:50:49;;;;;;;29.93;17.50;;;;;;;3.10;66.88;94431.78;5031797;28;20660;-59
2022/03/05 06:53:15;;;;;;;29.80;16.67;;;;;;;3.28;66.33;94438.22;5013957;28;20239;-58
2022/03/05 06:55:40;;;;;;;25.57;16.13;;;;;;;3.06;66.83;94430.34;5032058;28;20213;-59
2022/03/05 06:58:06;;;;;;;28.27;16.63;;;;;;;3.06;66.81;94432.06;5031826;28;20225;-59
2022/03/05 07:00:32;;;;;;;31.63;18.43;;;;;;;3.45;65.41;94453.97;5031707;28;20186;-59
2022/03/05 07:02:58;;;;;;;29.30;17.97;;;;;;;3.68;64.36;94491.06;5031367;28;20210;-58
2022/03/05 07:05:23;;;;;;;33.60;16.80;;;;;;;3.67;64.28;94486.97;5013259;28;20200;-59
2022/03/05 07:07:49;;;;;;;30.53;16.30;;;;;;;3.51;63.14;94511.41;5031509;28;20186;-60
2022/03/05 07:10:14;;;;;;;27.87;14.90;;;;;;;3.79;60.83;94533.97;5031648;28;20205;-61
2022/03/05 07:12:41;;;;;;;25.57;15.23;;;;;;;4.05;60.89;94553.31;5031561;28;20190;-59
2022/03/05 07:15:07;;;;;;;27.10;14.70;;;;;;;3.94;59.48;94568.25;5013583;28;20244;-60
2022/03/05 07:17:33;;;;;;;25.13;14.10;;;;;;;3.68;61.06;94523.75;5031247;28;20206;-58
2022/03/05 07:19:58;;;;;;;27.43;15.07;;;;;;;3.63;63.10;94468.75;5031281;28;20212;-58
2022/03/05 07:22:24;;;;;;;25.63;16.03;;;;;;;3.74;61.27;94508.28;5031060;28;20569;-58
2022/03/05 07:24:50;;;;;;;29.33;16.37;;;;;;;3.76;61.69;94504.78;5031031;28;20696;-59
2022/03/05 07:27:16;;;;;;;28.50;15.57;;;;;;;3.89;61.29;94518.25;5013395;28;20265;-59
2022/03/05 07:29:43;;;;;;;25.37;15.10;;;;;;;4.06;61.71;94497.09;5029487;28;20199;-58
2022/03/05 07:32:09;;;;;;;28.63;16.63;;;;;;;4.28;59.21;94561.97;5031290;28;20171;-59
2022/03/05 07:34:35;;;;;;;23.57;14.73;;;;;;;3.87;60.14;94520.03;5030190;28;20201;-58
2022/03/05 07:37:00;;;;;;;23.83;15.03;;;;;;;4.23;59.49;94544.63;5031080;28;20175;-58
2022/03/05 07:39:26;;;;;;;27.97;15.63;;;;;;;4.54;59.79;94529.25;5013509;28;20207;-60
2022/03/05 07:41:52;;;;;;;26.53;15.53;;;;;;;4.67;59.22;94536.78;5013451;28;20201;-59
2022/03/05 07:44:17;;;;;;;41.67;21.10;;;;;;;4.85;60.14;94533.09;5030948;28;20718;-59
2022/03/05 07:46:43;;;;;;;49.93;23.13;;;;;;;5.09;61.73;94486.97;5030972;28;20254;-61
2022/03/05 07:49:08;;;;;;;43.00;24.27;;;;;;;5.03;62.08;94473.97;5013480;28;20216;-59
2022/03/05 07:51:34;;;;;;;44.90;25.10;;;;;;;5.07;63.71;94447.69;5034740;28;20192;-59
2022/03/05 07:53:59;;;;;;;42.77;22.17;;;;;;;5.03;62.61;94463.91;5016917;28;20214;-59
2022/03/05 07:56:25;;;;;;;42.37;22.63;;;;;;;4.81;62.95;94449.41;5034731;28;20548;-59
2022/03/05 07:58:51;;;;;;;37.63;22.53;;;;;;;5.03;64.22;94426.13;5016721;28;20292;-59
2022/03/05 08:01:20;;;;;;;44.17;22.43;;;;;;;5.17;63.34;94455.44;5034559;28;20670;-65
2022/03/05 08:03:48;;;;;;;37.57;21.60;;;;;;;5.20;61.92;94480.41;5034744;28;20205;-60
2022/03/05 08:06:14;;;;;;;45.17;21.57;;;;;;;5.15;60.48;94523.56;5033098;28;20313;-60
2022/03/05 08:08:40;;;;;;;39.93;22.67;;;;;;;5.01;61.91;94488.38;5034453;28;20224;-58
2022/03/05 08:11:07;;;;;;;46.30;23.67;;;;;;;5.31;62.25;94470.44;5016419;28;20651;-59
2022/03/05 08:13:32;;;;;;;46.30;23.73;;;;;;;5.48;62.14;94483.50;5017032;28;20227;-60
2022/03/05 08:15:58;;;;;;;52.60;25.47;;;;;;;5.36;62.84;94459.13;5016425;28;20590;-62
2022/03/05 08:18:23;;;;;;;45.30;25.40;;;;;;;5.39;63.96;94432.94;5034295;28;20224;-59
2022/03/05 08:20:49;;;;;;;40.83;24.53;;;;;;;5.13;64.47;94427.13;5034311;28;20238;-59
2022/03/05 08:23:15;;;;;;;40.37;22.43;;;;;;;4.93;64.88;94425.94;5049031;22;20230;-58
2022/03/05 08:25:41;;;;;;;43.13;25.00;;;;;;;5.17;64.29;94432.78;5014934;28;20805;-59
2022/03/05 08:28:07;;;;;;;39.33;22.47;;;;;;;5.37;65.28;94417.09;5033624;28;20197;-59
2022/03/05 08:30:33;;;;;;;41.83;24.77;;;;;;;5.54;64.87;94424.31;5033780;28;20181;-61
2022/03/05 08:32:58;;;;;;;39.17;22.27;;;;;;;5.62;65.02;94430.44;5033892;28;20580;-59
2022/03/05 08:35:25;;;;;;;42.43;23.80;;;;;;;5.84;63.97;94455.81;5034310;28;20241;-58
2022/03/05 08:37:51;;;;;;;38.63;21.13;;;;;;;5.99;63.18;94456.47;5016177;28;20212;-59
2022/03/05 08:40:18;;;;;;;37.90;22.00;;;;;;;5.79;62.97;94467.09;5034541;28;20211;-59
2022/03/05 08:42:45;;;;;;;33.53;21.43;;;;;;;5.74;63.33;94446.44;5033905;28;20228;-59
2022/03/05 08:45:11;;;;;;;38.00;22.73;;;;;;;5.72;63.74;94450.75;5032942;28;20203;-59
2022/03/05 08:47:38;;;;;;;38.43;20.77;;;;;;;5.69;63.24;94463.59;5015969;28;20199;-60
2022/03/05 08:50:06;;;;;;;35.33;19.77;;;;;;;5.43;64.53;94440.19;5034243;28;20183;-60
2022/03/05 08:52:36;;;;;;;36.90;22.17;;;;;;;5.36;65.61;94418.00;5015747;28;20212;-58
2022/03/05 08:55:12;;;;;;;27.93;18.13;;;;;;;6.05;100.00;94313.94;5033464;28;20674;-59
2022/03/05 08:57:39;;;;;;;30.43;18.83;;;;;;;7.25;100.00;94324.19;5033140;28;20209;-61
2022/03/05 09:00:08;;;;;;;30.63;18.90;;;;;;;7.58;99.22;94463.19;5033716;28;20554;-60
2022/03/05 09:02:33;;;;;;;36.87;18.97;;;;;;;7.27;83.81;94530.41;5032717;28;20193;-60
2022/03/05 09:04:59;;;;;;;31.77;20.67;;;;;;;7.05;79.15;94557.41;5033736;28;20292;-61
2022/03/05 09:07:24;;;;;;;27.53;16.43;;;;;;;6.83;81.91;94482.31;5033177;28;20201;-60
2022/03/05 09:09:50;;;;;;;21.97;14.37;;;;;;;6.68;79.44;94513.75;5033354;28;20210;-62
2022/03/05 09:12:16;;;;;;;18.93;12.40;;;;;;;6.26;83.17;94451.97;5033237;28;20329;-62
2022/03/05 09:14:41;;;;;;;23.87;14.07;;;;;;;6.07;83.44;94425.63;5015318;28;20251;-60
2022/03/05 09:17:07;;;;;;;20.17;13.37;;;;;;;5.75;84.47;94405.19;5015114;28;20197;-61
2022/03/05 09:19:32;;;;;;;24.00;15.43;;;;;;;5.62;85.58;94380.00;5033210;28;20672;-61
2022/03/05 09:21:58;;;;;;;26.17;15.37;;;;;;;5.58;84.47;94388.69;5032671;28;20187;-62
2022/03/05 09:24:23;;;;;;;23.03;13.50;;;;;;;5.82;85.68;94366.00;5013677;28;20306;-61
2022/03/05 09:26:49;;;;;;;18.17;12.67;;;;;;;5.74;86.58;94353.94;5032432;28;20565;-61
2022/03/05 09:29:14;;;;;;;19.77;12.80;;;;;;;5.93;86.50;94368.59;5032819;28;20220;-60
2022/03/05 09:31:41;;;;;;;22.67;13.60;;;;;;;6.05;85.06;94389.63;5014725;28;20239;-61
2022/03/05 09:34:07;;;;;;;20.93;12.93;;;;;;;6.18;84.72;94397.94;5014780;28;20206;-61
2022/03/05 09:36:32;;;;;;;23.10;13.80;;;;;;;6.33;84.69;94395.09;5014651;28;20207;-61
2022/03/05 09:38:57;;;;;;;21.57;12.67;;;;;;;6.43;84.83;94387.66;5039385;22;20613;-63
2022/03/05 09:41:23;;;;;;;19.37;12.90;;;;;;;6.50;84.56;94379.56;5032259;28;20205;-60
2022/03/05 09:43:49;;;;;;;18.80;12.60;;;;;;;6.68;82.25;94426.19;5032680;28;20209;-61
2022/03/05 09:46:19;;;;;;;17.43;12.60;;;;;;;6.93;82.64;94414.25;5030892;28;20177;-62
2022/03/05 09:48:45;;;;;;;19.17;12.43;;;;;;;6.96;80.45;94440.09;5031299;28;20294;-60
2022/03/05 09:51:11;;;;;;;20.33;13.07;;;;;;;7.22;79.61;94460.91;5031171;28;20187;-60
2022/03/05 09:53:36;;;;;;;20.50;13.63;;;;;;;7.32;76.80;94482.84;5039134;22;20229;-61
2022/03/05 09:56:02;;;;;;;22.07;13.60;;;;;;;7.16;74.26;94514.44;5061273;22;20229;-61
2022/03/05 09:58:28;;;;;;;20.63;12.90;;;;;;;6.96;76.57;94478.00;5032151;28;20217;-61
2022/03/05 10:00:54;;;;;;;17.50;12.90;;;;;;;6.45;77.35;94441.38;5039122;22;20229;-60
2022/03/05 10:03:22;;;;;;;22.77;13.40;;;;;;;6.37;78.44;94436.88;5038718;22;20244;-61
2022/03/05 10:05:47;;;;;;;18.33;12.40;;;;;;;6.23;79.94;94411.81;5013840;28;20181;-64
2022/03/05 10:08:20;;;;;;;20.27;12.40;;;;;;;6.15;82.20;94375.44;5032064;28;20339;-60
2022/03/05 10:10:54;;;;;;;22.30;13.47;;;;;;;5.89;82.51;94374.78;5031741;28;20169;-61
2022/03/05 10:13:30;;;;;;;19.30;12.43;;;;;;;5.73;82.43;94380.06;5030679;28;20286;-62
2022/03/05 10:16:06;;;;;;;19.13;13.03;;;;;;;5.81;83.41;94366.91;5014274;28;20173;-60
2022/03/05 10:18:40;;;;;;;21.63;14.43;;;;;;;5.80;83.32;94362.78;5014032;28;20280;-61
2022/03/05 10:21:08;;;;;;;20.33;12.93;;;;;;;5.76;84.40;94331.13;5031472;28;20603;-61
2022/03/05 10:23:39;;;;;;;21.60;13.17;;;;;;;5.80;85.25;94333.31;5032021;23;20690;-61
2022/03/05 10:26:08;;;;;;;22.67;13.53;;;;;;;5.94;85.14;94339.94;5020263;22;20174;-62
2022/03/05 10:28:35;;;;;;;22.43;13.53;;;;;;;5.94;84.93;94355.06;5045055;22;20236;-62
2022/03/05 10:31:07;;;;;;;18.57;13.07;;;;;;;5.88;85.86;94330.28;5014497;28;20192;-62
2022/03/05 10:33:37;;;;;;;21.00;13.73;;;;;;;6.21;91.04;94327.84;5042959;22;20292;-61
2022/03/05 10:36:06;;;;;;;20.30;13.60;;;;;;;6.04;85.41;94375.41;5027739;23;20237;-60
2022/03/05 10:38:43;;;;;;;18.20;12.60;;;;;;;5.97;85.84;94359.09;5031709;28;20221;-62
2022/03/05 10:41:10;;;;;;;22.77;14.03;;;;;;;5.83;86.91;94338.19;5040058;23;20184;-62
2022/03/05 10:43:35;;;;;;;24.43;13.47;;;;;;;6.00;86.83;94338.72;5039337;22;20766;-62
2022/03/05 10:46:01;;;;;;;24.67;14.13;;;;;;;5.87;85.47;94359.75;5038205;23;20228;-62
2022/03/05 10:48:30;;;;;;;22.00;14.57;;;;;;;5.92;86.94;94332.47;5067926;22;20542;-62
2022/03/05 10:51:20;;;;;;;23.70;14.40;;;;;;;5.82;86.94;94326.44;5033663;23;20661;-61
2022/03/05 10:53:48;;;;;;;21.03;14.77;;;;;;;5.80;89.89;94287.94;5051624;22;20626;-61
2022/03/05 10:56:31;;;;;;;22.87;14.10;;;;;;;5.69;88.65;94307.28;5030421;23;20378;-61
2022/03/05 10:59:16;;;;;;;22.00;14.40;;;;;;;5.57;88.90;94305.63;5031578;28;20217;-61
2022/03/05 11:01:43;;;;;;;25.00;13.57;;;;;;;5.65;90.77;94270.59;5007710;23;20336;-66
2022/03/05 11:04:11;;;;;;;20.10;12.47;;;;;;;5.72;88.48;94307.03;5018702;23;20237;-65
2022/03/05 11:06:39;;;;;;;19.87;13.23;;;;;;;5.57;89.31;94298.88;5011633;28;20232;-66
2022/03/05 11:09:07;;;;;;;20.17;13.43;;;;;;;5.35;91.54;94263.50;5007772;23;20711;-64
2022/03/05 11:11:37;;;;;;;21.00;13.50;;;;;;;5.27;91.13;94275.03;5018651;23;20331;-65
2022/03/05 11:14:05;;;;;;;16.67;12.23;;;;;;;5.36;93.12;94249.97;5018498;23;20229;-66
2022/03/05 11:16:32;;;;;;;26.37;14.10;;;;;;;5.48;91.96;94276.00;5011640;28;20179;-67
2022/03/05 11:18:58;;;;;;;21.07;12.83;;;;;;;5.30;92.82;94250.41;5011923;28;20230;-66
2022/03/05 11:21:25;;;;;;;22.23;14.27;;;;;;;5.40;93.71;94246.31;5011515;28;20180;-68
2022/03/05 11:23:51;;;;;;;20.63;14.13;;;;;;;5.43;92.62;94253.69;5012083;28;20359;-71